Time;durP1;ratioP1;P1;durP2;ratioP2;P2;SDS_P1;SDS_P2;PMS_P1;PMS_P2;Temp;Humidity;BMP_temperature;BMP_pressure;BME280_temperature;BME280_humidity;BME280_pressure;Samples;Min_cycle;Max_cycle;Signal;HPM_P1;HPM_P2
2022/12/13 00:02:15;;;;;;;25.30;17.17;;;;;;;28.00;57.87;100992.72;5022154;28;70153;-39
2022/12/13 00:04:47;;;;;;;23.88;17.02;;;;;;;27.89;56.94;101002.22;5034995;28;65565;-38
2022/12/13 00:07:18;;;;;;;25.13;15.30;;;;;;;27.89;57.64;101006.75;5072006;27;69841;-40
2022/12/13 00:09:50;;;;;;;27.15;15.20;;;;;;;27.89;58.27;101006.75;5052412;28;66116;-40
2022/12/13 00:12:21;;;;;;;17.67;14.17;;;;;;;27.97;58.84;101007.44;5050523;28;70229;-40
2022/12/13 00:14:54;;;;;;;30.02;15.07;;;;;;;28.02;57.99;101023.84;5051292;28;66434;-40
2022/12/13 00:17:25;;;;;;;30.15;14.38;;;;;;;28.03;59.08;101025.53;5054855;28;69765;-39
2022/12/13 00:19:56;;;;;;;22.90;14.37;;;;;;;27.99;59.14;101024.25;5052470;28;65399;-40
2022/12/13 00:22:28;;;;;;;22.87;14.67;;;;;;;28.10;59.39;101041.75;5057801;28;68755;-39
2022/12/13 00:24:59;;;;;;;24.03;13.70;;;;;;;28.11;59.41;101043.44;5053326;28;66981;-40
2022/12/13 00:27:31;;;;;;;21.93;13.37;;;;;;;28.15;58.83;101051.94;5053819;28;70214;-39
2022/12/13 00:30:03;;;;;;;16.92;12.90;;;;;;;27.98;59.17;101027.97;5055622;28;66376;-40
2022/12/13 00:32:34;;;;;;;18.13;12.43;;;;;;;28.18;57.71;101055.06;5055876;28;69531;-40
2022/12/13 00:35:06;;;;;;;17.90;11.87;;;;;;;28.17;57.21;101063.38;5056711;28;64695;-41
2022/12/13 00:37:37;;;;;;;16.13;11.60;;;;;;;28.18;57.23;101070.44;5056260;28;70406;-40
2022/12/13 00:40:10;;;;;;;13.93;11.23;;;;;;;28.19;56.53;101066.69;5057439;28;65341;-42
2022/12/13 00:42:41;;;;;;;12.40;11.27;;;;;;;28.18;56.58;101065.84;5057785;28;69741;-39
2022/12/13 00:45:12;;;;;;;12.70;11.57;;;;;;;28.20;56.33;101071.06;5054355;28;65306;-40
2022/12/13 00:47:46;;;;;;;20.10;11.55;;;;;;;27.84;56.11;101020.84;5056515;28;69191;-39
2022/12/13 00:50:17;;;;;;;14.60;11.55;;;;;;;28.25;56.30;101082.06;5055646;28;66278;-40
2022/12/13 00:52:48;;;;;;;15.52;11.25;;;;;;;28.23;56.14;101078.75;5055964;28;70006;-40
2022/12/13 00:55:20;;;;;;;16.30;11.87;;;;;;;28.24;56.26;101086.63;5060201;28;64879;-40
2022/12/13 00:57:52;;;;;;;16.95;11.43;;;;;;;28.23;56.06;101089.56;5057059;28;70278;-38
2022/12/13 01:00:24;;;;;;;17.55;11.75;;;;;;;28.27;55.90;101093.50;5058453;28;66361;-40
2022/12/13 01:02:55;;;;;;;15.25;11.48;;;;;;;28.26;55.64;101089.16;5056793;28;70296;-40
2022/12/13 01:05:27;;;;;;;14.93;11.50;;;;;;;28.27;55.49;101099.72;5057671;28;66109;-39
2022/12/13 01:08:18;;;;;;;15.52;10.98;;;;;;;28.27;55.68;101085.41;5059281;28;69091;-40
2022/12/13 01:10:50;;;;;;;13.40;11.60;;;;;;;28.27;55.84;101088.09;5057110;28;65416;-39
2022/12/13 01:13:22;;;;;;;14.60;11.57;;;;;;;28.24;55.73;101091.22;5056950;28;70156;-39
2022/12/13 01:15:53;;;;;;;15.53;11.30;;;;;;;28.30;55.09;101101.19;5056060;28;66151;-40
2022/12/13 01:18:24;;;;;;;12.50;11.25;;;;;;;28.31;55.40;101104.75;5049087;28;70196;-40
2022/12/13 01:21:01;;;;;;;15.23;11.17;;;;;;;28.34;55.04;101113.28;5045743;28;65992;-41
2022/12/13 01:23:33;;;;;;;13.38;10.77;;;;;;;28.35;55.25;101109.53;5053176;28;69454;-39
2022/12/13 01:26:07;;;;;;;18.48;11.77;;;;;;;28.35;54.97;101119.50;5057726;28;66405;-41
2022/12/13 01:28:39;;;;;;;12.75;11.55;;;;;;;28.28;55.16;101108.69;5057349;28;71783;-40
2022/12/13 01:31:13;;;;;;;15.38;10.93;;;;;;;28.36;54.96;101123.84;5056574;28;65658;-40
2022/12/13 01:33:47;;;;;;;13.43;12.13;;;;;;;28.33;54.62;101105.38;5057360;28;69926;-40
2022/12/13 01:36:21;;;;;;;13.65;11.23;;;;;;;28.40;54.75;101112.47;5055067;28;66269;-42
2022/12/13 01:38:57;;;;;;;13.68;11.52;;;;;;;28.37;54.48;101112.88;5058134;28;69486;-42
2022/12/13 01:41:29;;;;;;;15.90;11.27;;;;;;;28.39;54.54;101121.63;5050117;28;65378;-42
2022/12/13 01:44:03;;;;;;;16.17;12.00;;;;;;;27.92;54.83;101044.94;5050976;28;70335;-41
2022/12/13 01:46:35;;;;;;;12.52;11.25;;;;;;;28.41;54.25;101118.72;5060828;28;66253;-42
2022/12/13 01:49:15;;;;;;;11.85;10.80;;;;;;;28.41;54.62;101118.72;5054234;28;69844;-40
2022/12/13 01:51:59;;;;;;;16.60;11.38;;;;;;;28.04;54.50;101054.16;5060159;28;65728;-41
2022/12/13 01:54:35;;;;;;;13.30;11.57;;;;;;;28.46;53.92;101127.06;5062516;28;69135;-40
2022/12/13 01:57:19;;;;;;;14.18;10.82;;;;;;;28.45;54.46;101118.16;5062801;28;65098;-44
2022/12/13 01:59:53;;;;;;;13.85;10.50;;;;;;;28.44;53.88;101119.16;5048825;28;70478;-40
2022/12/13 02:02:24;;;;;;;12.23;10.90;;;;;;;28.40;54.28;101117.88;5051974;28;65844;-40
2022/12/13 02:05:15;;;;;;;11.80;10.87;;;;;;;28.47;53.89;101128.75;5056108;28;69929;-41
2022/12/13 02:07:48;;;;;;;12.90;11.60;;;;;;;28.05;53.68;101066.63;5046019;28;66946;-41
2022/12/13 02:10:20;;;;;;;13.30;10.88;;;;;;;28.47;53.98;101128.75;5056156;28;70505;-40
2022/12/13 02:12:52;;;;;;;17.90;11.73;;;;;;;28.45;54.21;101128.94;5052938;28;65778;-40
2022/12/13 02:15:27;;;;;;;15.95;10.98;;;;;;;28.51;53.93;101136.25;5051993;28;70146;-40
2022/12/13 02:18:36;;;;;;;12.43;10.98;;;;;;;28.38;53.62;101125.31;5054473;28;65417;-42
2022/12/13 02:21:16;;;;;;;20.50;12.48;;;;;;;28.54;54.07;101131.50;5053398;28;69223;-42
2022/12/13 02:24:18;;;;;;;14.40;11.05;;;;;;;27.99;53.78;101056.59;5053170;28;66893;-41
2022/12/13 02:27:22;;;;;;;17.25;11.88;;;;;;;28.56;53.43;101130.25;5052124;28;70371;-40
2022/12/13 02:30:18;;;;;;;18.98;11.32;;;;;;;28.50;53.63;101122.94;5026747;28;66344;-41
2022/12/13 02:33:01;;;;;;;12.40;11.13;;;;;;;28.05;53.41;101045.03;5056161;28;69059;-45
2022/12/13 02:36:00;;;;;;;21.10;11.77;;;;;;;28.60;53.80;101136.09;5050148;28;66391;-43
2022/12/13 02:38:55;;;;;;;14.15;11.30;;;;;;;28.55;53.81;101128.56;5050073;28;70601;-40
2022/12/13 02:41:35;;;;;;;17.90;11.38;;;;;;;28.52;53.06;101108.22;5049356;28;65341;-42
2022/12/13 02:44:14;;;;;;;12.00;10.88;;;;;;;28.51;53.23;101109.25;5055276;28;70033;-42
2022/12/13 02:47:00;;;;;;;20.23;11.55;;;;;;;28.60;53.36;101122.59;5050927;28;65991;-42
2022/12/13 02:49:37;;;;;;;15.45;11.00;;;;;;;28.70;53.77;101136.56;5057591;28;70598;-40
2022/12/13 02:52:12;;;;;;;16.75;11.73;;;;;;;28.76;53.28;101149.28;5051677;28;65434;-40
2022/12/13 02:54:54;;;;;;;15.00;11.48;;;;;;;28.78;53.17;101140.94;5057333;28;69645;-41
2022/12/13 02:57:33;;;;;;;15.48;11.50;;;;;;;28.80;53.10;101144.28;5054078;28;65468;-42
2022/12/13 03:00:30;;;;;;;12.20;10.77;;;;;;;28.69;53.16;101126.78;5052518;28;71265;-40
2022/12/13 03:03:01;;;;;;;13.07;11.07;;;;;;;28.80;53.26;101134.31;5074340;27;65768;-40
2022/12/13 03:09:06;;;;;;;11.40;10.37;;;;;;;28.74;53.48;101129.72;5039455;28;66388;-40
2022/12/13 03:15:23;;;;;;;12.15;10.02;;;;;;;28.01;53.01;100991.69;5039831;28;66411;-39
2022/12/13 03:18:14;;;;;;;13.52;11.05;;;;;;;28.48;53.10;101055.69;5050169;28;69977;-40
2022/12/13 03:20:55;;;;;;;11.18;10.27;;;;;;;28.95;53.45;101121.53;5060394;28;66521;-46
2022/12/13 03:23:27;;;;;;;14.57;11.13;;;;;;;28.95;53.55;101110.72;5054952;28;70607;-44
2022/12/13 03:26:04;;;;;;;16.40;11.07;;;;;;;28.58;53.11;101043.69;5060889;28;66416;-43
2022/12/13 03:28:37;;;;;;;11.75;10.65;;;;;;;29.01;53.27;101113.66;5058470;28;70184;-40
2022/12/13 03:31:09;;;;;;;13.32;11.40;;;;;;;29.01;53.44;101114.47;5060670;28;65189;-42
2022/12/13 03:33:41;;;;;;;15.60;10.73;;;;;;;28.99;53.08;101105.75;5052419;28;70465;-43
2022/12/13 03:36:13;;;;;;;14.95;11.30;;;;;;;29.05;53.06;101120.34;5056956;28;66033;-40
2022/12/13 03:38:44;;;;;;;;;;;;;;;28.71;53.78;101108.53;5071271;27;70296;-44
2022/12/13 03:41:31;;;;;;;11.60;10.52;;;;;;;28.96;53.22;101101.56;5043152;28;65399;-41
2022/12/13 03:44:07;;;;;;;11.68;10.57;;;;;;;29.12;53.13;101116.63;5051203;28;69492;-41
2022/12/13 03:46:38;;;;;;;12.20;10.48;;;;;;;28.62;52.79;101034.16;5058406;28;66342;-43
2022/12/13 03:49:10;;;;;;;11.43;9.65;;;;;;;29.13;52.69;101102.09;5052043;28;68998;-42
2022/12/13 03:51:46;;;;;;;13.27;10.82;;;;;;;29.19;53.18;101100.44;5049580;28;65907;-43
2022/12/13 03:54:18;;;;;;;12.32;11.13;;;;;;;29.13;53.04;101083.16;5051067;28;70348;-40
2022/12/13 03:56:49;;;;;;;;;;;;;;;28.87;53.40;101091.16;5051761;28;66560;-40
2022/12/13 03:59:20;;;;;;;11.00;10.10;;;;;;;29.11;53.03;101087.09;5060341;28;69758;-44
2022/12/13 04:01:52;;;;;;;12.07;10.97;;;;;;;29.24;53.20;101089.84;5056732;28;66433;-39
2022/12/13 04:04:23;;;;;;;13.45;11.65;;;;;;;29.27;52.92;101092.13;5056367;28;69282;-41
2022/12/13 04:06:55;;;;;;;12.83;11.30;;;;;;;29.28;53.09;101083.03;5058835;28;65747;-42
2022/12/13 04:09:26;;;;;;;12.55;11.32;;;;;;;29.28;52.79;101079.47;5039453;28;70110;-41
2022/12/13 04:14:48;;;;;;;11.60;10.60;;;;;;;29.36;52.84;101077.41;5042280;28;70229;-40
2022/12/13 04:17:19;;;;;;;11.18;10.27;;;;;;;29.28;52.74;101052.44;5056041;28;66264;-40
2022/12/13 04:19:51;;;;;;;12.17;10.90;;;;;;;29.39;52.85;101063.50;5052926;28;69837;-40
2022/12/13 04:22:22;;;;;;;20.15;11.35;;;;;;;29.43;52.84;101057.69;5054741;28;65506;-40
2022/12/13 04:24:55;;;;;;;11.25;10.10;;;;;;;29.46;52.60;101057.25;5054909;28;69941;-40
2022/12/13 04:27:26;;;;;;;11.27;10.32;;;;;;;29.46;52.47;101046.44;5047153;28;66452;-42
2022/12/13 04:29:58;;;;;;;11.43;10.33;;;;;;;29.47;52.13;101046.22;5051958;28;70419;-40
2022/12/13 04:32:29;;;;;;;;;;;;;;;29.18;52.94;101047.44;5051237;28;64584;-40
2022/12/13 04:35:01;;;;;;;11.40;9.98;;;;;;;29.52;52.60;101042.91;5054954;28;69231;-39
2022/12/13 04:37:32;;;;;;;11.40;10.45;;;;;;;29.37;52.58;101016.94;5067760;28;66156;-42
2022/12/13 04:40:04;;;;;;;11.10;10.05;;;;;;;29.41;51.91;101001.13;5047695;28;69369;-45
2022/12/13 04:42:35;;;;;;;12.85;10.32;;;;;;;29.58;51.83;101029.38;5048309;28;65206;-44
2022/12/13 04:45:07;;;;;;;10.40;9.60;;;;;;;29.40;52.42;101000.28;5057465;28;69595;-41
2022/12/13 04:47:38;;;;;;;11.75;10.40;;;;;;;29.65;52.38;101029.44;5059989;28;66396;-40
2022/12/13 04:50:11;;;;;;;11.40;10.45;;;;;;;29.68;51.88;101022.78;5051724;28;70349;-40
2022/12/13 04:52:43;;;;;;;;;;;;;;;29.37;52.74;101016.94;5056044;28;66225;-42
2022/12/13 04:55:14;;;;;;;10.73;9.80;;;;;;;29.68;52.39;101007.38;5048238;28;70400;-42
2022/12/13 04:57:46;;;;;;;12.20;10.40;;;;;;;29.72;51.76;101005.09;5051407;28;65542;-42
2022/12/13 05:00:19;;;;;;;11.13;10.00;;;;;;;29.75;51.58;101002.78;5057871;28;69110;-42
2022/12/13 05:02:50;;;;;;;10.68;9.77;;;;;;;29.80;51.88;100999.47;5057165;28;66331;-42
2022/12/13 05:05:21;;;;;;;10.25;9.35;;;;;;;29.79;51.63;100987.81;5054398;28;69953;-41
2022/12/13 05:07:53;;;;;;;11.47;10.10;;;;;;;29.82;52.01;100982.00;5052995;28;65875;-40
2022/12/13 05:10:25;;;;;;;10.15;9.40;;;;;;;29.83;51.69;100972.81;5051837;28;69222;-41
2022/12/13 05:13:06;;;;;;;10.82;10.02;;;;;;;29.90;51.28;100972.00;5048301;28;65782;-44
2022/12/13 05:15:37;;;;;;;10.88;9.75;;;;;;;29.76;52.13;100950.41;5055932;28;69204;-41
2022/12/13 05:18:10;;;;;;;11.07;9.88;;;;;;;29.92;51.51;100964.50;5056840;28;66851;-43
2022/12/13 05:20:41;;;;;;;10.32;9.30;;;;;;;29.94;51.88;100954.31;5059104;28;69992;-42
2022/12/13 05:23:12;;;;;;;10.07;9.20;;;;;;;29.80;51.87;100930.00;5057912;28;65211;-42
2022/12/13 05:25:51;;;;;;;10.38;9.57;;;;;;;29.91;51.66;100935.78;5055414;28;69327;-41
2022/12/13 05:28:26;;;;;;;10.05;9.25;;;;;;;30.01;51.52;100947.00;5056240;28;65112;-42
2022/12/13 05:31:06;;;;;;;10.43;9.63;;;;;;;30.03;51.25;100944.91;5058541;28;70537;-42
2022/12/13 05:33:54;;;;;;;10.40;9.50;;;;;;;30.06;51.88;100949.88;5052702;28;66517;-42
2022/12/13 05:36:31;;;;;;;10.27;9.48;;;;;;;30.06;51.29;100936.34;5057304;28;69361;-44
2022/12/13 05:39:02;;;;;;;10.73;10.02;;;;;;;30.06;51.86;100934.50;5061806;28;66230;-41
2022/12/13 05:41:56;;;;;;;10.10;9.45;;;;;;;29.65;51.21;100851.03;5055448;28;71766;-43
2022/12/13 05:44:32;;;;;;;10.68;9.70;;;;;;;30.08;51.25;100909.94;5059722;28;65736;-41
2022/12/13 05:47:04;;;;;;;10.50;9.63;;;;;;;30.14;51.25;100913.66;5062015;28;69421;-41
2022/12/13 05:49:35;;;;;;;10.40;9.45;;;;;;;30.12;51.22;100911.19;5058479;28;65931;-42
2022/12/13 05:52:20;;;;;;;9.98;9.13;;;;;;;30.13;51.35;100891.19;5049253;28;70586;-40
2022/12/13 05:54:59;;;;;;;10.55;9.48;;;;;;;30.16;51.67;100890.75;5056340;28;66185;-41
2022/12/13 05:57:32;;;;;;;10.55;9.27;;;;;;;30.17;51.41;100887.03;5055606;28;69283;-41
2022/12/13 06:00:06;;;;;;;9.77;9.15;;;;;;;30.20;51.23;100886.59;5060720;28;66319;-42
2022/12/13 06:02:59;;;;;;;10.05;9.20;;;;;;;30.21;51.63;100882.81;5056761;28;69440;-40
2022/12/13 06:05:31;;;;;;;9.40;8.68;;;;;;;30.23;51.10;100875.38;5049279;28;65345;-42
2022/12/13 06:08:03;;;;;;;9.52;8.73;;;;;;;30.17;51.31;100859.13;5058957;28;70245;-40
2022/12/13 06:10:58;;;;;;;10.77;9.48;;;;;;;29.48;51.27;100725.47;5052002;28;66634;-40
2022/12/13 06:13:42;;;;;;;10.43;9.30;;;;;;;30.27;51.29;100854.94;5058356;28;69271;-44
2022/12/13 06:16:14;;;;;;;10.00;9.40;;;;;;;30.24;50.91;100841.84;5058501;28;65528;-41
2022/12/13 06:18:54;;;;;;;10.32;9.55;;;;;;;30.32;51.10;100850.75;5061207;28;70196;-42
2022/12/13 06:21:33;;;;;;;9.32;8.48;;;;;;;30.33;50.82;100842.41;5057507;28;66403;-40
2022/12/13 06:24:16;;;;;;;9.33;8.73;;;;;;;29.89;50.98;100764.81;5056875;28;69463;-41
2022/12/13 06:26:50;;;;;;;10.18;9.30;;;;;;;30.38;50.99;100831.75;5057011;28;66074;-41
2022/12/13 06:29:22;;;;;;;9.63;8.80;;;;;;;30.41;51.24;100833.19;5063034;28;70142;-40
2022/12/13 06:31:57;;;;;;;8.27;7.78;;;;;;;30.18;50.53;100785.84;5058342;28;65701;-40
2022/12/13 06:34:34;;;;;;;8.68;8.10;;;;;;;30.45;50.97;100818.16;5055586;28;70077;-41
2022/12/13 06:37:08;;;;;;;9.35;8.32;;;;;;;30.08;50.33;100744.91;5047716;28;66653;-41
2022/12/13 06:39:39;;;;;;;9.32;8.52;;;;;;;30.48;50.78;100812.34;5053550;28;70822;-40
2022/12/13 06:42:18;;;;;;;8.80;8.10;;;;;;;30.51;50.34;100806.50;5043306;28;66034;-41
2022/12/13 06:44:51;;;;;;;10.85;8.35;;;;;;;30.54;50.94;100791.69;5054081;28;70370;-41
2022/12/13 06:47:26;;;;;;;10.07;8.93;;;;;;;30.46;50.88;100780.06;5060331;28;65713;-41
2022/12/13 06:50:01;;;;;;;9.27;8.43;;;;;;;30.58;50.53;100785.59;5055287;28;70052;-41
2022/12/13 06:52:35;;;;;;;7.95;7.35;;;;;;;30.49;50.22;100765.28;5054323;28;65609;-44
2022/12/13 06:55:07;;;;;;;8.98;8.30;;;;;;;30.60;50.53;100782.69;5055478;28;70128;-42
2022/12/13 06:57:39;;;;;;;7.82;7.40;;;;;;;30.57;50.19;100772.28;5056109;28;65630;-41
2022/12/13 07:00:11;;;;;;;8.32;7.82;;;;;;;30.67;50.26;100788.84;5057540;28;69716;-40
2022/12/13 07:02:55;;;;;;;8.10;7.40;;;;;;;30.72;49.91;100773.59;5054142;28;66680;-42
2022/12/13 07:05:27;;;;;;;8.10;7.60;;;;;;;30.75;50.27;100775.03;5059590;28;69562;-41
2022/12/13 07:07:58;;;;;;;7.85;7.35;;;;;;;30.76;50.46;100775.88;5053290;28;66302;-40
2022/12/13 07:10:31;;;;;;;8.73;8.13;;;;;;;30.78;50.38;100771.88;5056403;28;69913;-40
2022/12/13 07:13:02;;;;;;;8.02;7.40;;;;;;;30.71;50.16;100747.59;5059456;28;65737;-41
2022/12/13 07:15:34;;;;;;;8.60;7.90;;;;;;;30.54;50.20;100724.03;5050405;28;70179;-41
2022/12/13 07:18:05;;;;;;;8.93;8.38;;;;;;;30.81;50.45;100759.81;5055002;28;66353;-41
2022/12/13 07:20:39;;;;;;;8.40;7.80;;;;;;;30.40;49.70;100680.00;5048998;28;69473;-43
2022/12/13 07:23:11;;;;;;;8.25;7.65;;;;;;;30.87;49.96;100753.50;5056767;28;65655;-41
2022/12/13 07:25:49;;;;;;;8.30;7.70;;;;;;;30.89;50.02;100754.09;5056521;28;69805;-41
2022/12/13 07:28:21;;;;;;;7.72;7.03;;;;;;;30.92;50.21;100749.09;5050285;28;65945;-40
2022/12/13 07:30:53;;;;;;;8.07;7.35;;;;;;;30.92;49.92;100742.81;5053209;28;69565;-40
2022/12/13 07:33:24;;;;;;;7.78;7.28;;;;;;;30.94;49.86;100746.16;5059109;28;66098;-40
2022/12/13 07:36:06;;;;;;;8.90;8.10;;;;;;;30.96;49.67;100744.03;5059878;28;69434;-40
2022/12/13 07:38:38;;;;;;;10.18;8.43;;;;;;;31.00;49.56;100745.25;5054507;28;66677;-40
2022/12/13 07:41:10;;;;;;;7.78;7.38;;;;;;;31.01;49.53;100746.91;5058250;28;70093;-40
2022/12/13 07:43:54;;;;;;;8.27;7.68;;;;;;;30.95;49.53;100726.13;5057233;28;66831;-41
2022/12/13 07:46:25;;;;;;;10.27;8.10;;;;;;;31.04;49.20;100746.47;5054167;28;69336;-41
2022/12/13 07:49:03;;;;;;;8.88;8.10;;;;;;;31.09;49.24;100748.47;5058533;28;66715;-41
2022/12/13 07:51:35;;;;;;;8.07;7.47;;;;;;;31.11;49.40;100740.97;5053280;28;70594;-41
2022/12/13 07:54:07;;;;;;;;;;;;;;;30.84;49.96;100738.56;5054393;28;66327;-40
2022/12/13 07:56:38;;;;;;;9.10;8.20;;;;;;;31.11;49.38;100741.78;5058491;28;69192;-41
2022/12/13 07:59:10;;;;;;;10.80;8.35;;;;;;;31.16;49.21;100739.22;5057554;28;66706;-45
2022/12/13 08:01:41;;;;;;;9.65;8.60;;;;;;;31.21;49.05;100745.88;5055217;28;69452;-42
2022/12/13 08:04:13;;;;;;;12.30;8.63;;;;;;;31.24;48.97;100745.41;5060521;28;65527;-41
2022/12/13 08:06:44;;;;;;;9.65;8.75;;;;;;;31.25;49.47;100737.03;5052323;28;69991;-41
2022/12/13 08:09:16;;;;;;;9.80;8.98;;;;;;;31.28;49.10;100728.47;5056110;28;65317;-43
2022/12/13 08:11:48;;;;;;;9.20;8.25;;;;;;;31.28;49.04;100714.09;5056311;28;69678;-40
2022/12/13 08:14:20;;;;;;;17.25;8.82;;;;;;;31.37;48.62;100729.00;5056674;28;66783;-44
2022/12/13 08:16:51;;;;;;;11.03;8.43;;;;;;;31.39;49.25;100726.91;5053821;28;70309;-40
2022/12/13 08:19:23;;;;;;;9.35;8.65;;;;;;;31.13;49.04;100677.38;5059810;28;65235;-41
2022/12/13 08:21:55;;;;;;;10.40;8.77;;;;;;;31.45;49.00;100726.00;5057520;28;70221;-42
2022/12/13 08:24:31;;;;;;;9.35;8.48;;;;;;;31.35;48.61;100698.59;5051976;28;64200;-41
2022/12/13 08:27:04;;;;;;;9.50;8.13;;;;;;;31.47;48.68;100718.47;5053523;28;69839;-41
2022/12/13 08:29:35;;;;;;;10.75;8.85;;;;;;;31.50;48.78;100718.00;5057988;28;67161;-40
2022/12/13 08:32:10;;;;;;;10.10;9.23;;;;;;;31.28;48.66;100673.44;5058521;28;69518;-41
2022/12/13 08:34:42;;;;;;;9.10;8.20;;;;;;;31.56;49.03;100716.25;5057455;28;66230;-43
2022/12/13 08:37:14;;;;;;;9.57;8.88;;;;;;;31.58;48.97;100723.13;5049538;28;69558;-44
2022/12/13 08:39:45;;;;;;;9.50;8.70;;;;;;;31.57;48.39;100715.22;5057056;28;65580;-41
2022/12/13 08:42:18;;;;;;;12.30;9.55;;;;;;;31.18;48.60;100655.03;5053604;28;70453;-40
2022/12/13 08:44:51;;;;;;;10.20;9.30;;;;;;;31.66;48.48;100723.88;5056848;28;65552;-40
2022/12/13 08:47:27;;;;;;;18.27;9.57;;;;;;;31.30;48.07;100655.06;5053375;28;70609;-41
2022/12/13 08:49:59;;;;;;;11.90;9.50;;;;;;;31.73;48.58;100727.28;5054922;28;66693;-40
2022/12/13 08:52:35;;;;;;;12.13;9.55;;;;;;;31.76;48.21;100726.84;5057000;28;69943;-43
2022/12/13 08:55:12;;;;;;;14.77;10.00;;;;;;;31.36;48.39;100654.19;5033732;28;66172;-41
2022/12/13 08:57:44;;;;;;;12.48;9.77;;;;;;;31.77;48.05;100731.22;5050448;28;69710;-41
2022/12/13 09:00:18;;;;;;;12.73;9.45;;;;;;;31.61;48.26;100708.28;5047399;28;65748;-43
2022/12/13 09:02:49;;;;;;;10.93;9.77;;;;;;;31.78;48.12;100735.56;5054516;28;69841;-41
2022/12/13 09:05:20;;;;;;;14.77;10.00;;;;;;;31.82;48.40;100742.22;5049072;28;66162;-41
2022/12/13 09:08:04;;;;;;;14.40;9.68;;;;;;;31.72;48.06;100720.22;5056734;28;69522;-40
2022/12/13 09:10:58;;;;;;;13.07;9.77;;;;;;;31.83;47.97;100754.69;5058978;28;65920;-41
2022/12/13 09:13:40;;;;;;;20.73;11.77;;;;;;;31.41;47.99;100676.00;5057875;28;70310;-41
2022/12/13 09:16:15;;;;;;;17.42;11.68;;;;;;;31.67;48.65;100739.06;5052715;28;66553;-41
2022/12/13 09:18:53;;;;;;;14.05;11.98;;;;;;;31.52;50.03;100748.44;5050844;28;69343;-41
2022/12/13 09:21:25;;;;;;;18.10;12.73;;;;;;;31.34;50.48;100729.44;5048967;28;66433;-41
2022/12/13 09:24:01;;;;;;;17.77;13.40;;;;;;;31.36;50.86;100749.03;5047771;27;69257;-40
2022/12/13 09:26:32;;;;;;;24.98;14.00;;;;;;;31.27;50.99;100761.22;5046277;28;65341;-40
2022/12/13 09:29:07;;;;;;;19.88;14.00;;;;;;;31.22;51.73;100753.75;5052340;28;70481;-40
2022/12/13 09:31:40;;;;;;;16.35;12.52;;;;;;;31.20;52.22;100755.03;5047120;28;66631;-41
2022/12/13 09:34:18;;;;;;;22.55;13.90;;;;;;;31.15;52.01;100758.44;5049108;28;69869;-43
2022/12/13 09:36:49;;;;;;;32.63;13.98;;;;;;;31.12;52.32;100759.72;5039463;28;66722;-41
2022/12/13 09:39:21;;;;;;;20.27;13.85;;;;;;;31.08;52.46;100758.50;5048252;28;70253;-41
2022/12/13 09:41:56;;;;;;;26.48;14.40;;;;;;;30.67;52.57;100692.25;5049620;28;66313;-43
2022/12/13 09:44:42;;;;;;;21.73;13.85;;;;;;;30.32;52.76;100653.22;5043605;28;70976;-41
2022/12/13 09:47:27;;;;;;;15.98;13.15;;;;;;;31.07;52.54;100781.22;5051378;28;66459;-44
2022/12/13 09:50:12;;;;;;;20.85;14.23;;;;;;;30.89;52.48;100749.50;5051386;28;69380;-44
2022/12/13 09:52:45;;;;;;;15.80;14.27;;;;;;;30.92;53.23;100754.50;5046810;28;65748;-40
2022/12/13 09:55:31;;;;;;;22.73;14.98;;;;;;;30.63;53.21;100718.09;5050835;28;70256;-42
2022/12/13 09:58:27;;;;;;;16.65;13.75;;;;;;;30.61;53.24;100709.34;5051858;28;65595;-41
2022/12/13 10:00:59;;;;;;;21.52;14.13;;;;;;;31.02;53.13;100781.06;5048640;28;70384;-45
2022/12/13 10:03:30;;;;;;;18.88;14.32;;;;;;;30.96;53.25;100775.72;5058213;28;65961;-41
2022/12/13 10:06:23;;;;;;;17.80;14.43;;;;;;;30.88;53.54;100777.66;5056214;28;70208;-41
2022/12/13 10:08:59;;;;;;;18.52;14.68;;;;;;;30.99;53.27;100776.09;5053378;28;65348;-41
2022/12/13 10:11:32;;;;;;;27.23;15.30;;;;;;;30.99;53.30;100786.94;5053124;28;70357;-44
2022/12/13 10:14:15;;;;;;;16.45;14.63;;;;;;;30.99;53.75;100778.81;5060281;28;66614;-42
2022/12/13 10:16:50;;;;;;;28.70;15.55;;;;;;;31.02;53.97;100802.75;5054616;28;69794;-44
2022/12/13 10:19:50;;;;;;;21.48;14.93;;;;;;;30.91;54.38;100789.94;5067734;27;65375;-40
2022/12/13 10:22:22;;;;;;;25.08;15.35;;;;;;;30.97;54.51;100799.88;5051316;28;69104;-39
2022/12/13 10:24:58;;;;;;;19.02;15.45;;;;;;;30.54;54.24;100724.03;5051804;28;66320;-41
2022/12/13 10:27:39;;;;;;;25.58;16.45;;;;;;;30.95;54.55;100796.53;5053664;28;69464;-39
2022/12/13 10:30:16;;;;;;;26.40;14.82;;;;;;;30.98;55.33;100806.97;5052549;28;66497;-40
2022/12/13 10:32:57;;;;;;;18.70;15.25;;;;;;;31.03;55.40;100815.22;5060358;28;69913;-42
2022/12/13 10:35:35;;;;;;;28.50;16.30;;;;;;;31.02;56.08;100813.59;5056609;28;66597;-40
2022/12/13 10:38:07;;;;;;;20.25;15.10;;;;;;;31.10;55.23;100805.16;5056833;28;70552;-40
2022/12/13 10:40:45;;;;;;;19.97;13.57;;;;;;;31.08;55.36;100791.00;5054899;28;66112;-40
2022/12/13 10:43:19;;;;;;;23.15;15.60;;;;;;;31.30;55.14;100820.41;5053404;28;70153;-40
2022/12/13 10:45:57;;;;;;;28.98;16.65;;;;;;;31.29;53.45;100818.75;5056036;28;66541;-42
2022/12/13 10:48:37;;;;;;;15.68;13.93;;;;;;;31.34;54.80;100821.59;5054340;28;69703;-41
2022/12/13 10:51:14;;;;;;;16.17;14.20;;;;;;;30.59;54.56;100706.06;5045687;28;66622;-41
2022/12/13 10:53:46;;;;;;;17.73;14.35;;;;;;;31.39;54.10;100840.75;5051887;28;70453;-40
2022/12/13 10:56:19;;;;;;;17.47;14.40;;;;;;;31.37;52.79;100843.69;5058299;28;66491;-42
2022/12/13 10:59:23;;;;;;;16.35;14.40;;;;;;;31.31;53.87;100843.72;5059060;28;69447;-39
2022/12/13 11:01:55;;;;;;;21.37;15.43;;;;;;;31.42;53.91;100845.72;5045164;28;66528;-41
2022/12/13 11:04:35;;;;;;;15.15;13.43;;;;;;;31.28;54.46;100822.50;5050478;28;70301;-39
2022/12/13 11:07:33;;;;;;;22.00;14.90;;;;;;;31.33;53.60;100860.59;5057815;28;66349;-43
2022/12/13 11:10:25;;;;;;;17.77;15.07;;;;;;;31.38;55.31;100866.22;5060893;28;71077;-41
2022/12/13 11:13:05;;;;;;;29.30;16.42;;;;;;;31.30;55.10;100842.91;5053714;28;66010;-40
2022/12/13 11:15:38;;;;;;;20.90;16.05;;;;;;;31.32;55.66;100845.41;5060873;28;69810;-40
2022/12/13 11:18:21;;;;;;;20.63;16.05;;;;;;;31.42;55.78;100872.81;5061434;28;66423;-39
2022/12/13 11:21:01;;;;;;;22.05;15.90;;;;;;;31.45;55.94;100877.78;5054043;28;69624;-41
2022/12/13 11:23:43;;;;;;;19.25;16.08;;;;;;;31.35;55.32;100877.47;5053865;28;66345;-40
2022/12/13 11:26:19;;;;;;;20.95;16.50;;;;;;;31.04;54.89;100822.31;5054020;28;70779;-40
2022/12/13 11:29:23;;;;;;;17.02;15.43;;;;;;;30.96;55.66;100809.06;5052409;28;64530;-41
2022/12/13 11:32:11;;;;;;;18.55;16.10;;;;;;;31.45;55.28;100888.63;5045040;28;69582;-40
2022/12/13 11:35:24;;;;;;;30.98;17.08;;;;;;;31.32;54.99;100894.19;5049663;28;66096;-42
2022/12/13 11:38:04;;;;;;;19.98;16.75;;;;;;;31.40;55.05;100885.78;5049658;28;70198;-42
2022/12/13 11:40:48;;;;;;;21.02;17.73;;;;;;;31.36;54.40;100890.81;5055290;28;65774;-41
2022/12/13 11:43:28;;;;;;;23.13;17.70;;;;;;;31.41;54.10;100901.00;5053684;28;69559;-41
2022/12/13 11:46:12;;;;;;;24.35;17.77;;;;;;;31.37;55.01;100903.34;5047877;28;66341;-40
2022/12/13 11:49:00;;;;;;;26.52;18.65;;;;;;;31.28;55.24;100906.50;5049155;28;69262;-41
2022/12/13 11:51:43;;;;;;;25.02;18.42;;;;;;;31.23;54.51;100896.34;5053947;28;65910;-42
2022/12/13 11:54:28;;;;;;;23.65;18.15;;;;;;;30.47;54.76;100789.00;5047929;28;69861;-43
2022/12/13 11:57:06;;;;;;;30.70;18.45;;;;;;;31.23;54.36;100906.34;5050197;28;66353;-41
2022/12/13 11:59:54;;;;;;;29.67;18.77;;;;;;;31.23;54.40;100933.44;5054693;27;69635;-41
2022/12/13 12:02:33;;;;;;;27.13;17.35;;;;;;;31.30;54.79;100945.88;5036871;28;66013;-42
2022/12/13 12:05:16;;;;;;;29.52;18.63;;;;;;;30.87;53.77;100880.78;5055948;28;70022;-42
2022/12/13 12:07:54;;;;;;;31.48;19.50;;;;;;;31.26;54.98;100947.41;5050294;28;66108;-40